createdAt,value
2023-03-04T00:02:45.154Z,35.25
2023-03-04T00:08:47.562Z,33.72
2023-03-04T00:14:49.698Z,34.28
2023-03-04T00:20:52.002Z,36.40
2023-03-04T00:26:54.197Z,32.47
2023-03-04T00:32:56.460Z,34.75
2023-03-04T00:45:01.295Z,33.67
2023-03-04T00:51:03.503Z,31.83
2023-03-04T00:57:05.630Z,31.95
2023-03-04T01:03:07.856Z,34.70
2023-03-04T01:09:10.284Z,33.97
2023-03-04T01:15:13.925Z,34.25
2023-03-04T01:21:16.150Z,35.88
2023-03-04T01:27:18.296Z,34.30
2023-03-04T01:33:20.450Z,33.75
2023-03-04T01:39:22.634Z,32.42
2023-03-04T01:45:26.738Z,31.33
2023-03-04T01:51:29.037Z,33.60
2023-03-04T01:57:35.857Z,32.15
2023-03-04T02:03:39.130Z,32.42
2023-03-04T02:09:41.507Z,34.70
2023-03-04T02:15:45.471Z,31.33
2023-03-04T02:21:47.591Z,35.08
2023-03-04T02:27:49.754Z,32.35
2023-03-04T02:33:54.268Z,34.75
2023-03-04T02:39:56.648Z,33.05
2023-03-04T02:45:58.950Z,33.60
2023-03-04T02:58:17.658Z,32.75
2023-03-04T03:04:21.151Z,32.28
2023-03-04T03:10:25.108Z,32.75
2023-03-04T03:16:27.744Z,33.75
2023-03-04T03:22:30.399Z,32.80
2023-03-04T03:28:32.844Z,32.55
2023-03-04T03:34:35.775Z,31.63
2023-03-04T03:40:38.180Z,35.63
2023-03-04T03:46:40.664Z,33.47
2023-03-04T03:52:42.848Z,33.60
2023-03-04T03:58:45.213Z,32.13
2023-03-04T04:04:47.611Z,33.85
2023-03-04T04:10:49.707Z,32.10
2023-03-04T04:16:51.892Z,38.72
2023-03-04T04:22:54.133Z,39.05
2023-03-04T04:28:56.275Z,34.47
2023-03-04T04:34:58.401Z,36.35
2023-03-04T04:41:01.055Z,34.25
2023-03-04T04:53:05.356Z,37.88
2023-03-04T04:59:08.865Z,34.72
2023-03-04T05:05:11.156Z,36.20
2023-03-04T05:11:13.318Z,33.97
2023-03-04T05:17:15.360Z,34.28
2023-03-04T05:23:17.733Z,40.63
2023-03-04T05:29:20.259Z,37.22
2023-03-04T05:35:22.382Z,33.67
2023-03-04T05:41:24.656Z,35.90
2023-03-04T05:47:26.910Z,36.03
2023-03-04T05:53:29.585Z,30.83
2023-03-04T05:59:31.854Z,28.35
2023-03-04T06:05:34.295Z,29.30
2023-03-04T06:11:36.586Z,26.90
2023-03-04T06:17:42.157Z,27.85
2023-03-04T06:23:45.510Z,27.98
2023-03-04T06:29:48.044Z,27.05
2023-03-04T06:35:54.625Z,28.83
2023-03-04T06:41:56.949Z,25.38
2023-03-04T06:47:59.400Z,27.33
2023-03-04T06:54:01.753Z,27.98
2023-03-04T07:00:04.663Z,26.23
2023-03-04T07:06:07.460Z,28.30
2023-03-04T07:12:09.927Z,30.52
2023-03-04T07:18:12.238Z,34.58
2023-03-04T07:24:14.754Z,34.70
2023-03-04T07:30:17.447Z,30.83
2023-03-04T07:36:20.446Z,30.60
2023-03-04T07:42:23.330Z,30.20
2023-03-04T07:48:33.524Z,34.17
2023-03-04T07:54:36.225Z,35.17
2023-03-04T08:06:42.075Z,36.85
2023-03-04T08:12:44.178Z,43.33
2023-03-04T08:18:48.718Z,43.05
2023-03-04T08:24:50.786Z,44.38
2023-03-04T08:30:54.863Z,42.47
2023-03-04T08:36:57.164Z,42.60
2023-03-04T08:42:59.438Z,39.42
2023-03-04T08:49:01.644Z,39.83
2023-03-04T08:55:04.218Z,53.72
2023-03-04T09:01:09.423Z,38.05
2023-03-04T09:07:11.800Z,32.53
2023-03-04T09:13:17.884Z,27.80
2023-03-04T09:19:20.521Z,26.63
2023-03-04T09:31:26.611Z,21.52
2023-03-04T09:37:28.755Z,19.20
2023-03-04T09:43:32.825Z,20.83
2023-03-04T09:49:39.111Z,17.85
2023-03-04T09:55:44.407Z,18.80
2023-03-04T10:01:55.136Z,17.42
2023-03-04T10:08:01.071Z,19.55
2023-03-04T10:14:38.761Z,20.67
2023-03-04T10:20:59.892Z,19.13
2023-03-04T10:27:07.480Z,19.02
2023-03-04T10:33:31.439Z,21.75
2023-03-04T10:39:40.045Z,20.42
2023-03-04T10:45:42.687Z,22.70
2023-03-04T10:51:51.060Z,21.13
2023-03-04T10:57:58.029Z,19.13
2023-03-04T11:04:00.322Z,19.20
2023-03-04T11:10:20.220Z,19.23
2023-03-04T11:16:31.436Z,20.38
2023-03-04T11:22:33.930Z,19.83
2023-03-04T11:28:47.713Z,19.25
2023-03-04T11:35:08.673Z,20.20
2023-03-04T11:41:17.197Z,19.67
2023-03-04T11:47:46.651Z,21.50
2023-03-04T11:54:36.190Z,23.20
2023-03-04T12:00:44.250Z,26.30
2023-03-04T12:07:09.366Z,28.17
2023-03-04T12:13:36.595Z,32.08
2023-03-04T12:20:09.216Z,34.10
2023-03-04T12:26:43.843Z,35.10
2023-03-04T12:32:57.702Z,39.95
2023-03-04T12:39:08.562Z,37.45
2023-03-04T12:45:19.626Z,40.10
2023-03-04T12:51:35.360Z,39.72
2023-03-04T12:57:38.565Z,35.85
2023-03-04T13:03:45.400Z,29.65
2023-03-04T13:09:57.739Z,28.77
2023-03-04T13:16:27.325Z,28.77
2023-03-04T13:22:41.522Z,28.83
2023-03-04T13:28:43.910Z,29.30
2023-03-04T13:34:54.842Z,29.80
2023-03-04T13:41:31.546Z,33.35
2023-03-04T13:47:45.659Z,34.85
2023-03-04T13:53:56.581Z,39.38
2023-03-04T13:59:59.014Z,36.30
2023-03-04T14:06:10.355Z,35.90
2023-03-04T14:12:19.774Z,35.88
2023-03-04T14:18:25.164Z,32.80
2023-03-04T14:24:27.518Z,33.90
2023-03-04T14:30:42.103Z,36.88
2023-03-04T14:36:45.793Z,32.83
2023-03-04T14:42:49.643Z,30.02
2023-03-04T14:48:54.049Z,31.85
2023-03-04T14:55:15.216Z,30.55
2023-03-04T15:01:21.776Z,29.77
2023-03-04T15:07:36.263Z,31.55
2023-03-04T15:13:50.349Z,28.40
2023-03-04T15:20:17.553Z,30.48
2023-03-04T15:26:19.846Z,31.35
2023-03-04T15:32:26.140Z,32.00
2023-03-04T15:38:29.312Z,28.33
2023-03-04T15:44:32.228Z,31.40
2023-03-04T15:50:36.333Z,29.60
2023-03-04T15:56:39.617Z,27.98
2023-03-04T16:02:42.806Z,26.67
2023-03-04T16:08:46.157Z,25.63
2023-03-04T16:14:50.190Z,23.45
2023-03-04T16:20:52.579Z,25.17
2023-03-04T16:26:54.924Z,24.70
2023-03-04T16:32:57.531Z,25.20
2023-03-04T16:39:03.469Z,25.65
2023-03-04T16:45:06.564Z,25.10
2023-03-04T16:51:17.317Z,26.42
2023-03-04T16:57:20.170Z,26.70
2023-03-04T17:03:22.380Z,29.95
2023-03-04T17:09:24.493Z,25.98
2023-03-04T17:15:26.791Z,27.33
2023-03-04T17:21:28.944Z,27.27
2023-03-04T17:27:31.116Z,28.23
2023-03-04T17:33:33.443Z,27.42
2023-03-04T17:39:35.631Z,30.35
2023-03-04T17:45:42.180Z,33.17
2023-03-04T17:51:44.780Z,32.65
2023-03-04T17:57:47.234Z,31.98
2023-03-04T18:03:49.499Z,31.10
2023-03-04T18:09:51.891Z,29.40
2023-03-04T18:15:54.239Z,31.77
2023-03-04T18:21:56.891Z,25.63
2023-03-04T18:27:59.451Z,27.23
2023-03-04T18:34:02.286Z,24.90
2023-03-04T18:46:09.236Z,23.33
2023-03-04T18:52:11.796Z,24.08
2023-03-04T18:58:14.178Z,23.52
2023-03-04T19:04:18.396Z,22.98
2023-03-04T19:10:21.448Z,23.70
2023-03-04T19:16:24.186Z,24.05
2023-03-04T19:28:28.209Z,24.92
2023-03-04T19:34:30.221Z,23.73
2023-03-04T19:40:34.657Z,25.50
2023-03-04T19:46:36.853Z,24.77
2023-03-04T19:52:40.431Z,23.10
2023-03-04T19:58:42.830Z,23.30
2023-03-04T20:04:45.056Z,22.40
2023-03-04T20:10:47.273Z,23.63
2023-03-04T20:16:49.605Z,23.55
2023-03-04T20:22:51.924Z,19.58
2023-03-04T20:28:54.492Z,21.70
2023-03-04T20:34:58.386Z,21.52
2023-03-04T20:41:00.630Z,22.98
2023-03-04T20:47:03.749Z,18.98
2023-03-04T20:53:05.984Z,19.77
2023-03-04T20:59:10.616Z,19.17
2023-03-04T21:05:13.348Z,19.17
2023-03-04T21:11:17.067Z,17.50
2023-03-04T21:17:19.288Z,20.27
2023-03-04T21:23:22.000Z,23.02
2023-03-04T21:29:25.791Z,21.20
2023-03-04T21:35:27.999Z,21.88
2023-03-04T21:41:31.325Z,20.48
2023-03-04T21:47:34.958Z,20.80
2023-03-04T21:53:37.619Z,19.35
2023-03-04T22:05:45.396Z,19.23
2023-03-04T22:11:47.608Z,19.58
2023-03-04T22:17:50.019Z,20.38
2023-03-04T22:23:52.282Z,17.83
2023-03-04T22:29:56.026Z,17.38
2023-03-04T22:35:58.104Z,17.85
2023-03-04T22:42:00.320Z,16.13
2023-03-04T22:48:02.784Z,17.73
2023-03-04T22:54:05.146Z,16.05
2023-03-04T23:00:15.859Z,17.42
2023-03-04T23:06:20.950Z,17.20
2023-03-04T23:12:23.536Z,16.42
2023-03-04T23:24:28.133Z,16.73
2023-03-04T23:30:30.550Z,16.92
2023-03-04T23:36:35.587Z,16.30
2023-03-04T23:42:39.224Z,16.55
2023-03-04T23:48:46.621Z,17.52
2023-03-04T23:54:48.918Z,15.05
